Time;durP1;ratioP1;P1;durP2;ratioP2;P2;SDS_P1;SDS_P2;PMS_P1;PMS_P2;Temp;Humidity;BMP_temperature;BMP_pressure;BME280_temperature;BME280_humidity;BME280_pressure;Samples;Min_cycle;Max_cycle;Signal;HPM_P1;HPM_P2
2022/05/15 00:03:03;;;;;;;23.65;7.80;;;;;;;17.33;50.05;101938.91;4951934;29;20098;-60
2022/05/15 00:05:28;;;;;;;18.38;8.15;;;;;;;17.29;50.07;101940.56;4951738;28;20043;-60
2022/05/15 00:07:56;;;;;;;20.92;7.82;;;;;;;17.25;50.15;101936.59;4977434;28;20557;-60
2022/05/15 00:10:22;;;;;;;18.63;7.40;;;;;;;17.18;50.34;101929.28;5017596;28;20076;-61
2022/05/15 00:12:47;;;;;;;22.42;7.68;;;;;;;17.15;50.60;101940.22;5009948;28;20045;-61
2022/05/15 00:15:12;;;;;;;21.85;8.38;;;;;;;17.13;50.67;101936.81;5011889;28;20490;-61
2022/05/15 00:17:37;;;;;;;23.80;7.32;;;;;;;17.07;50.55;101935.09;5011370;28;20025;-61
2022/05/15 00:20:03;;;;;;;20.92;8.30;;;;;;;17.07;50.48;101930.34;5012802;28;20453;-61
2022/05/15 00:22:34;;;;;;;22.23;8.07;;;;;;;17.09;50.34;101930.06;5009465;28;20048;-61
2022/05/15 00:25:02;;;;;;;26.88;8.73;;;;;;;17.08;50.04;101923.59;5022118;28;20030;-61
2022/05/15 00:27:27;;;;;;;24.25;7.88;;;;;;;17.00;50.38;101924.13;5013964;28;20041;-60
2022/05/15 00:29:56;;;;;;;23.52;8.07;;;;;;;16.99;50.44;101928.03;5009804;28;20441;-63
2022/05/15 00:32:21;;;;;;;20.67;7.55;;;;;;;17.00;50.26;101918.50;5009255;28;20509;-61
2022/05/15 00:34:46;;;;;;;25.50;7.70;;;;;;;17.04;50.10;101922.47;5011751;28;20129;-61
2022/05/15 00:37:11;;;;;;;21.45;7.45;;;;;;;17.01;49.99;101919.34;5008375;28;20041;-61
2022/05/15 00:39:40;;;;;;;21.92;7.78;;;;;;;17.08;49.95;101922.75;5009319;28;20022;-61
2022/05/15 00:42:11;;;;;;;19.75;7.07;;;;;;;17.01;49.76;101920.19;5010606;28;20034;-61
2022/05/15 00:44:39;;;;;;;22.85;7.70;;;;;;;17.06;49.82;101919.41;5011671;28;20037;-61
2022/05/15 00:47:05;;;;;;;18.50;6.95;;;;;;;17.03;49.57;101914.34;5019386;28;20040;-60
2022/05/15 00:49:33;;;;;;;23.02;7.60;;;;;;;17.05;49.30;101917.69;5012610;28;20109;-60
2022/05/15 00:52:04;;;;;;;21.83;7.03;;;;;;;16.98;49.74;101909.53;5010695;28;20044;-60
2022/05/15 00:54:34;;;;;;;25.88;7.32;;;;;;;16.94;49.60;101914.00;5010766;28;20038;-60
2022/05/15 00:57:20;;;;;;;20.08;7.15;;;;;;;16.96;49.89;101913.72;5010241;28;20144;-60
2022/05/15 00:59:55;;;;;;;20.85;7.10;;;;;;;16.86;49.82;101912.53;5007204;28;20026;-60
2022/05/15 01:02:23;;;;;;;24.88;7.68;;;;;;;16.81;50.01;101909.69;5011517;28;20053;-60
2022/05/15 01:04:50;;;;;;;20.27;6.50;;;;;;;16.83;50.09;101915.03;5010823;28;20041;-60
2022/05/15 01:07:16;;;;;;;20.25;7.15;;;;;;;16.72;50.18;101918.84;5008727;28;20425;-60
2022/05/15 01:09:41;;;;;;;17.63;6.38;;;;;;;16.66;50.30;101916.00;5011084;28;20026;-60
2022/05/15 01:12:08;;;;;;;29.23;7.07;;;;;;;16.64;50.33;101914.56;5008091;28;20148;-60
2022/05/15 01:14:33;;;;;;;24.75;6.88;;;;;;;16.65;50.48;101916.25;5011063;28;20057;-60
2022/05/15 01:16:59;;;;;;;22.80;7.22;;;;;;;16.59;50.51;101912.59;5003957;28;20636;-61
2022/05/15 01:19:32;;;;;;;19.48;6.80;;;;;;;16.62;50.57;101920.47;5009026;28;20132;-61
2022/05/15 01:21:59;;;;;;;21.55;7.05;;;;;;;16.54;50.72;101922.88;4997749;28;20473;-61
2022/05/15 01:24:25;;;;;;;24.00;7.07;;;;;;;16.66;50.22;101915.13;5010233;28;20053;-60
2022/05/15 01:26:51;;;;;;;19.58;6.45;;;;;;;16.58;50.44;101918.44;5001189;28;20037;-61
2022/05/15 01:29:27;;;;;;;18.98;6.63;;;;;;;16.49;50.81;101920.88;5011504;28;20033;-60
2022/05/15 01:31:52;;;;;;;23.85;7.35;;;;;;;16.43;51.13;101917.22;5000360;28;20041;-60
2022/05/15 01:34:18;;;;;;;14.48;6.50;;;;;;;16.45;50.84;101926.19;5008954;28;20033;-60
2022/05/15 01:36:43;;;;;;;23.75;7.22;;;;;;;16.36;51.11;101925.00;5007389;28;20053;-61
2022/05/15 01:39:08;;;;;;;18.25;6.70;;;;;;;16.37;51.00;101917.41;5011265;28;20030;-61
2022/05/15 01:41:34;;;;;;;24.45;7.00;;;;;;;16.33;51.12;101927.47;5010221;28;20485;-64
2022/05/15 01:43:59;;;;;;;22.60;7.13;;;;;;;16.18;51.37;101916.94;5010506;28;20037;-61
2022/05/15 01:46:26;;;;;;;23.33;7.80;;;;;;;16.22;51.36;101918.13;5010719;28;20121;-61
2022/05/15 01:48:55;;;;;;;26.45;7.60;;;;;;;16.14;51.76;101925.03;5008119;28;20504;-61
2022/05/15 01:51:24;;;;;;;20.60;6.80;;;;;;;16.09;51.53;101915.75;5009332;28;20034;-61
2022/05/15 01:53:49;;;;;;;24.63;7.40;;;;;;;16.08;51.86;101912.09;5013306;28;20496;-61
2022/05/15 01:56:15;;;;;;;21.95;7.53;;;;;;;16.07;51.91;101916.03;5010491;28;20073;-60
2022/05/15 01:58:40;;;;;;;24.83;7.13;;;;;;;15.96;51.95;101905.81;5010215;28;20478;-61
2022/05/15 02:01:06;;;;;;;25.55;7.43;;;;;;;15.87;52.23;101913.81;5009891;28;20045;-61
2022/05/15 02:03:31;;;;;;;21.45;7.10;;;;;;;15.87;52.05;101908.22;5008509;28;20112;-61
2022/05/15 02:05:57;;;;;;;24.80;7.07;;;;;;;15.79;52.10;101908.69;5010795;28;20084;-61
2022/05/15 02:08:23;;;;;;;20.15;6.97;;;;;;;15.85;52.40;101909.63;5009322;28;20021;-60
2022/05/15 02:10:49;;;;;;;21.83;7.05;;;;;;;15.81;52.54;101912.09;5007753;28;20080;-60
2022/05/15 02:13:15;;;;;;;21.27;6.53;;;;;;;15.78;52.46;101907.00;5008320;28;20030;-60
2022/05/15 02:15:40;;;;;;;21.10;7.07;;;;;;;15.76;52.26;101903.66;5010487;28;20041;-60
2022/05/15 02:18:06;;;;;;;18.25;6.93;;;;;;;15.66;52.70;101903.50;5009078;28;20301;-60
2022/05/15 02:20:40;;;;;;;23.67;7.45;;;;;;;15.68;52.75;101904.94;5009242;28;20097;-60
2022/05/15 02:23:06;;;;;;;22.45;7.53;;;;;;;15.64;52.74;101897.28;5008841;28;20026;-60
2022/05/15 02:25:32;;;;;;;22.60;8.18;;;;;;;15.57;52.97;101905.91;5014089;28;20040;-60
2022/05/15 02:28:00;;;;;;;25.13;7.88;;;;;;;15.50;53.01;101898.81;5013772;28;20049;-60
2022/05/15 02:30:26;;;;;;;17.52;6.78;;;;;;;15.52;52.94;101911.41;5009962;28;20022;-60
2022/05/15 02:32:54;;;;;;;24.25;8.07;;;;;;;15.44;53.43;101907.16;5014046;28;20075;-60
2022/05/15 02:35:20;;;;;;;20.10;7.32;;;;;;;15.41;53.38;101899.28;5014387;28;20100;-61
2022/05/15 02:37:48;;;;;;;22.05;7.72;;;;;;;15.35;53.41;101905.88;5009656;28;20038;-60
2022/05/15 02:40:19;;;;;;;25.88;8.10;;;;;;;15.33;53.75;101896.09;5012993;28;20026;-60
2022/05/15 02:42:44;;;;;;;22.65;7.22;;;;;;;15.31;53.80;101893.53;5013530;28;20080;-60
2022/05/15 02:45:13;;;;;;;24.33;7.82;;;;;;;15.31;53.70;101892.69;5012243;28;20117;-60
2022/05/15 02:47:38;;;;;;;24.20;7.32;;;;;;;15.23;53.99;101896.78;5013510;28;20375;-60
2022/05/15 02:52:49;;;;;;;21.60;7.07;;;;;;;15.18;53.89;101900.34;5011227;28;20393;-61
2022/05/15 02:55:14;;;;;;;22.23;7.20;;;;;;;15.13;53.90;101896.63;5008405;28;20057;-61
2022/05/15 02:57:41;;;;;;;21.73;7.88;;;;;;;15.07;54.01;101895.72;5011617;28;20053;-61
2022/05/15 03:00:09;;;;;;;23.63;7.28;;;;;;;15.09;53.96;101890.72;5012538;28;20030;-61
2022/05/15 03:02:39;;;;;;;19.75;7.35;;;;;;;15.07;54.03;101887.34;5012873;28;20026;-60
2022/05/15 03:05:05;;;;;;;17.85;7.00;;;;;;;15.04;53.93;101878.63;5020400;28;20030;-60
2022/05/15 03:07:31;;;;;;;23.27;7.18;;;;;;;15.01;54.43;101874.38;5023282;28;20032;-61
2022/05/15 03:09:59;;;;;;;27.17;8.30;;;;;;;14.98;54.54;101880.50;5012168;28;20121;-61
2022/05/15 03:12:24;;;;;;;23.17;7.55;;;;;;;15.01;54.10;101882.75;5011374;28;20037;-61
2022/05/15 03:14:49;;;;;;;21.40;7.30;;;;;;;14.95;54.25;101876.25;5011957;28;20449;-60
2022/05/15 03:17:16;;;;;;;24.85;7.72;;;;;;;14.98;54.02;101878.53;5012114;28;20473;-61
2022/05/15 03:19:43;;;;;;;26.75;7.45;;;;;;;14.86;54.20;101874.19;5011248;28;20022;-61
2022/05/15 03:22:08;;;;;;;19.75;7.10;;;;;;;14.89;54.31;101877.28;5018354;28;20068;-61
2022/05/15 03:24:33;;;;;;;20.60;7.13;;;;;;;14.89;54.23;101873.63;5012092;28;20069;-60
2022/05/15 03:26:59;;;;;;;22.80;7.28;;;;;;;14.77;54.76;101886.88;5011936;28;20174;-60
2022/05/15 03:29:24;;;;;;;29.23;8.27;;;;;;;14.84;54.54;101885.59;5004202;28;20105;-61
2022/05/15 03:31:49;;;;;;;22.10;7.22;;;;;;;14.80;54.57;101881.63;5010764;28;20041;-61
2022/05/15 03:34:16;;;;;;;26.52;7.72;;;;;;;14.80;54.62;101876.03;5023497;28;20527;-61
2022/05/15 03:36:44;;;;;;;24.15;7.93;;;;;;;14.73;54.95;101876.19;5013873;28;20121;-61
2022/05/15 03:39:10;;;;;;;25.63;7.15;;;;;;;14.73;55.01;101875.34;5012439;28;20029;-61
2022/05/15 03:41:36;;;;;;;28.88;7.35;;;;;;;14.66;54.83;101875.56;5011279;28;20122;-61
2022/05/15 03:44:02;;;;;;;25.13;7.78;;;;;;;14.60;54.76;101876.56;5013390;28;20030;-61
2022/05/15 03:46:30;;;;;;;19.10;7.10;;;;;;;14.60;54.96;101873.78;5007366;28;20470;-61
2022/05/15 03:48:56;;;;;;;24.90;7.45;;;;;;;14.57;55.02;101879.03;5014917;28;20042;-61
2022/05/15 03:51:22;;;;;;;26.52;7.53;;;;;;;14.53;55.47;101875.03;5011347;28;20044;-61
2022/05/15 03:53:47;;;;;;;23.45;8.23;;;;;;;14.53;55.00;101875.03;5013675;28;20077;-61
2022/05/15 03:56:14;;;;;;;23.70;7.18;;;;;;;14.46;55.53;101878.84;5010268;28;20053;-61
2022/05/15 03:58:40;;;;;;;26.20;7.45;;;;;;;14.42;55.49;101877.66;5012326;28;20034;-61
2022/05/15 04:01:06;;;;;;;22.75;7.70;;;;;;;14.46;55.37;101873.25;5000588;28;20026;-61
2022/05/15 04:03:32;;;;;;;24.08;6.90;;;;;;;14.43;55.75;101868.16;5011357;28;20034;-61
2022/05/15 04:05:57;;;;;;;15.65;6.50;;;;;;;14.38;55.73;101879.28;5010754;28;20033;-61
2022/05/15 04:08:23;;;;;;;22.92;7.75;;;;;;;14.39;55.45;101874.53;5011861;28;20038;-61
2022/05/15 04:10:49;;;;;;;25.73;8.10;;;;;;;14.41;55.55;101875.09;5012435;28;20413;-61
2022/05/15 04:13:15;;;;;;;22.80;7.07;;;;;;;14.34;55.98;101880.84;5011609;28;20026;-61
2022/05/15 04:15:40;;;;;;;26.08;8.25;;;;;;;14.34;55.95;101886.44;5011984;28;20033;-61
2022/05/15 04:18:06;;;;;;;23.95;8.82;;;;;;;14.31;55.88;101892.53;5012468;28;20040;-61
2022/05/15 04:20:32;;;;;;;29.77;8.52;;;;;;;14.30;55.97;101893.63;5011328;28;20500;-61
2022/05/15 04:22:57;;;;;;;22.75;7.63;;;;;;;14.36;56.00;101891.78;5009866;28;20043;-61
2022/05/15 04:25:23;;;;;;;21.60;7.82;;;;;;;14.39;55.87;101897.72;5010134;28;20033;-61
2022/05/15 04:27:49;;;;;;;22.77;7.63;;;;;;;14.39;56.03;101891.28;5012358;28;20034;-61
2022/05/15 04:30:18;;;;;;;23.45;7.32;;;;;;;14.41;56.00;101886.28;5008972;28;20076;-61
2022/05/15 04:32:44;;;;;;;24.85;8.05;;;;;;;14.42;56.29;101887.97;5006748;28;20099;-61
2022/05/15 04:35:10;;;;;;;28.75;7.53;;;;;;;14.40;56.54;101885.44;5012119;28;20041;-62
2022/05/15 04:37:36;;;;;;;34.25;8.77;;;;;;;14.41;56.78;101883.47;5008970;28;20034;-61
2022/05/15 04:40:09;;;;;;;24.90;7.28;;;;;;;14.46;56.52;101881.63;5011738;28;20465;-61
2022/05/15 04:42:34;;;;;;;;;;;;;;;14.76;54.55;101882.41;5011097;28;20041;-61
2022/05/15 04:44:59;;;;;;;26.13;8.23;;;;;;;14.43;56.10;101890.53;5010750;28;19925;-61
2022/05/15 04:47:25;;;;;;;21.42;7.43;;;;;;;14.44;56.17;101883.81;5022292;28;20375;-61
2022/05/15 04:49:53;;;;;;;26.27;8.90;;;;;;;14.42;56.55;101886.03;5010506;28;20064;-61
2022/05/15 04:52:21;;;;;;;25.98;8.10;;;;;;;14.42;56.79;101885.16;5010833;28;20037;-61
2022/05/15 04:54:46;;;;;;;27.08;7.78;;;;;;;14.50;56.51;101876.38;5009758;28;20030;-61
2022/05/15 04:57:12;;;;;;;27.67;8.27;;;;;;;14.54;56.50;101876.72;5008587;28;20392;-61
2022/05/15 04:59:37;;;;;;;29.25;8.45;;;;;;;14.54;57.00;101874.81;5011074;28;20049;-61
2022/05/15 05:02:03;;;;;;;23.25;8.40;;;;;;;14.66;56.44;101883.94;5006237;28;20041;-61
2022/05/15 05:04:28;;;;;;;27.60;8.20;;;;;;;14.58;56.41;101878.78;5010935;28;20026;-61
2022/05/15 05:06:54;;;;;;;28.00;7.65;;;;;;;14.69;56.27;101894.59;5008273;28;20033;-61
2022/05/15 05:09:19;;;;;;;26.85;8.93;;;;;;;14.72;56.55;101884.84;5011021;28;20042;-61
2022/05/15 05:12:05;;;;;;;24.95;8.32;;;;;;;14.77;55.76;101879.34;5008692;28;20041;-61
2022/05/15 05:14:30;;;;;;;20.67;7.68;;;;;;;14.81;56.10;101888.06;5008888;28;20045;-61
2022/05/15 05:16:55;;;;;;;25.75;8.10;;;;;;;14.79;56.62;101891.13;5009621;28;20045;-61
2022/05/15 05:19:21;;;;;;;24.70;8.20;;;;;;;14.88;55.91;101894.31;5008678;28;20037;-61
2022/05/15 05:21:46;;;;;;;32.60;8.10;;;;;;;14.88;56.77;101895.16;5009519;28;20068;-61
2022/05/15 05:24:11;;;;;;;27.20;8.10;;;;;;;14.85;57.05;101890.06;5010482;28;20040;-61
2022/05/15 05:26:36;;;;;;;31.33;9.10;;;;;;;14.86;56.74;101888.16;5009090;28;20064;-61
2022/05/15 05:29:03;;;;;;;20.95;7.93;;;;;;;14.93;56.84;101892.47;5010424;28;20038;-61
2022/05/15 05:31:28;;;;;;;27.42;8.00;;;;;;;15.02;56.48;101886.44;5008184;28;20025;-61
2022/05/15 05:33:54;;;;;;;20.50;8.05;;;;;;;15.03;56.72;101886.16;5008280;28;20540;-61
2022/05/15 05:36:22;;;;;;;20.70;7.68;;;;;;;15.12;56.49;101884.59;5011773;28;20077;-61
2022/05/15 05:38:48;;;;;;;26.73;8.50;;;;;;;15.29;56.35;101887.38;5009645;28;20061;-62
2022/05/15 05:41:13;;;;;;;21.63;7.80;;;;;;;15.31;55.88;101882.34;5003035;28;20033;-61
2022/05/15 05:43:38;;;;;;;27.35;8.38;;;;;;;15.41;55.88;101888.06;5006911;28;20037;-61
2022/05/15 05:46:04;;;;;;;23.50;8.70;;;;;;;15.53;55.68;101887.09;5004872;28;20044;-62
2022/05/15 05:48:29;;;;;;;30.80;9.07;;;;;;;15.57;56.10;101885.47;5006308;28;20041;-64
2022/05/15 05:50:55;;;;;;;26.65;8.45;;;;;;;15.66;55.49;101889.53;5004402;28;20659;-61
2022/05/15 05:53:20;;;;;;;21.63;7.90;;;;;;;15.75;56.22;101887.94;5005440;28;20037;-62
2022/05/15 05:55:46;;;;;;;25.77;8.45;;;;;;;15.85;55.66;101884.41;5006979;28;20026;-61
2022/05/15 05:58:11;;;;;;;22.52;8.50;;;;;;;15.99;55.60;101890.44;5007340;28;20056;-61
2022/05/15 06:00:40;;;;;;;18.75;7.13;;;;;;;16.07;54.99;101892.75;5002872;28;20092;-61
2022/05/15 06:05:51;;;;;;;23.35;8.68;;;;;;;16.23;54.32;101891.81;5003615;28;20049;-60
2022/05/15 06:08:20;;;;;;;23.65;8.45;;;;;;;16.26;54.11;101888.47;5002728;28;20034;-59
2022/05/15 06:10:48;;;;;;;26.50;8.93;;;;;;;16.35;54.08;101886.88;5002684;28;20026;-60
2022/05/15 06:13:14;;;;;;;25.38;8.90;;;;;;;16.41;54.15;101890.56;5007062;28;20038;-61
2022/05/15 06:15:39;;;;;;;21.88;8.95;;;;;;;16.56;53.65;101893.50;5005598;28;20049;-60
2022/05/15 06:18:06;;;;;;;23.52;9.13;;;;;;;16.65;54.06;101880.66;5006846;28;20428;-60
2022/05/15 06:20:31;;;;;;;27.40;9.27;;;;;;;16.73;53.65;101879.34;5005680;28;20489;-60
2022/05/15 06:23:00;;;;;;;25.17;9.05;;;;;;;16.83;53.24;101879.44;5004070;28;20041;-60
2022/05/15 06:25:25;;;;;;;20.90;8.60;;;;;;;16.93;53.14;101875.81;5003832;28;20022;-61
2022/05/15 06:27:51;;;;;;;22.15;9.23;;;;;;;16.98;52.87;101887.09;5006207;28;20034;-60
2022/05/15 06:30:16;;;;;;;17.08;8.55;;;;;;;17.03;53.11;101881.50;5003186;28;20428;-60
2022/05/15 06:32:42;;;;;;;21.48;8.80;;;;;;;17.08;52.57;101884.34;5004344;28;20723;-61
2022/05/15 06:35:10;;;;;;;18.55;8.73;;;;;;;17.12;52.80;101879.88;5003128;28;20046;-60
2022/05/15 06:37:36;;;;;;;19.25;9.23;;;;;;;17.18;53.08;101883.56;5004680;28;20042;-60
2022/05/15 06:40:02;;;;;;;12.35;6.47;;;;;;;17.32;53.22;101879.13;5002825;28;20388;-61
2022/05/15 06:42:29;;;;;;;21.95;9.50;;;;;;;17.36;53.40;101880.25;5005475;28;20597;-60
2022/05/15 06:44:55;;;;;;;15.82;7.45;;;;;;;17.54;52.94;101878.09;5003353;28;20065;-61
2022/05/15 06:47:23;;;;;;;18.67;8.35;;;;;;;17.70;52.15;101879.00;5001810;28;20792;-61
2022/05/15 06:49:48;;;;;;;14.27;4.97;;;;;;;17.93;53.85;101880.50;5005734;28;20057;-60
2022/05/15 06:52:13;;;;;;;12.82;4.90;;;;;;;18.17;53.29;101884.47;5009735;28;20124;-60
2022/05/15 06:54:39;;;;;;;17.08;8.00;;;;;;;18.21;50.94;101885.59;4998216;28;20152;-60
2022/05/15 06:59:48;;;;;;;12.95;5.35;;;;;;;18.49;52.04;101887.00;5002934;28;20591;-60
2022/05/15 07:02:14;;;;;;;14.48;6.05;;;;;;;18.54;51.52;101883.34;5002621;28;20033;-60
2022/05/15 07:04:39;;;;;;;14.75;6.00;;;;;;;18.65;50.97;101885.03;5000581;28;20045;-60
2022/05/15 07:07:04;;;;;;;16.27;6.55;;;;;;;18.78;50.86;101878.84;5000679;28;20402;-59
2022/05/15 07:09:30;;;;;;;15.70;6.05;;;;;;;18.93;50.75;101877.16;5003057;28;20588;-60
2022/05/15 07:11:58;;;;;;;14.50;6.38;;;;;;;19.01;50.40;101885.84;5004553;28;20037;-61
2022/05/15 07:14:29;;;;;;;16.75;6.40;;;;;;;19.09;50.32;101885.25;5008340;28;20030;-60
2022/05/15 07:16:57;;;;;;;19.77;6.80;;;;;;;19.10;49.88;101888.94;5006398;28;20769;-60
2022/05/15 07:19:23;;;;;;;11.40;6.05;;;;;;;19.19;50.48;101886.38;5029236;28;20039;-60
2022/05/15 07:21:48;;;;;;;14.45;6.43;;;;;;;19.27;50.49;101889.44;5004253;28;20026;-60
2022/05/15 07:24:16;;;;;;;14.70;7.90;;;;;;;19.31;49.40;101895.34;5006264;28;20485;-60
2022/05/15 07:26:44;;;;;;;12.10;5.85;;;;;;;19.41;49.26;101886.00;4998809;28;20029;-59
2022/05/15 07:29:11;;;;;;;16.30;6.57;;;;;;;19.52;48.98;101887.66;5007820;28;20034;-60
2022/05/15 07:31:37;;;;;;;14.95;7.03;;;;;;;19.63;48.70;101888.50;5010469;28;20072;-60
2022/05/15 07:34:11;;;;;;;14.43;6.35;;;;;;;19.66;48.76;101888.75;5015251;28;20750;-60
2022/05/15 07:36:54;;;;;;;;;;;;;;;19.72;49.37;101884.75;5008946;28;20056;-60
2022/05/15 07:39:21;;;;;;;20.60;7.07;;;;;;;19.92;50.41;101880.16;5009576;28;19921;-60
2022/05/15 07:41:48;;;;;;;15.27;8.75;;;;;;;19.88;48.21;101882.69;5006637;28;20297;-60
2022/05/15 07:44:17;;;;;;;20.75;8.40;;;;;;;19.97;47.92;101882.97;5007600;28;20449;-59
2022/05/15 07:46:42;;;;;;;14.45;6.45;;;;;;;20.11;48.48;101882.00;5007197;28;20022;-59
2022/05/15 07:49:09;;;;;;;16.33;8.43;;;;;;;20.03;46.20;101881.78;5007879;28;20040;-59
2022/05/15 07:51:34;;;;;;;16.30;6.65;;;;;;;20.12;47.86;101885.66;5007105;28;20037;-59
2022/05/15 07:54:00;;;;;;;19.67;9.32;;;;;;;20.07;46.38;101883.72;5007619;28;20231;-59
2022/05/15 07:56:26;;;;;;;17.83;7.93;;;;;;;20.21;46.60;101881.09;5010020;28;20476;-59
2022/05/15 07:58:52;;;;;;;17.80;7.60;;;;;;;20.30;46.00;101872.84;5010647;28;20029;-61
2022/05/15 08:01:20;;;;;;;13.68;6.30;;;;;;;20.39;47.15;101870.22;5007046;28;20038;-59
2022/05/15 08:03:46;;;;;;;15.80;8.07;;;;;;;20.48;47.54;101876.94;5006428;28;20481;-59
2022/05/15 08:08:59;;;;;;;14.65;6.78;;;;;;;20.67;46.38;101875.09;5009596;28;20147;-60
2022/05/15 08:11:28;;;;;;;20.23;7.43;;;;;;;20.73;46.00;101873.91;5009504;28;20030;-60
2022/05/15 08:13:58;;;;;;;19.10;8.27;;;;;;;20.77;45.55;101866.53;5003941;28;20036;-60
2022/05/15 08:16:24;;;;;;;16.45;7.72;;;;;;;20.89;45.32;101859.63;5010387;28;20396;-60
2022/05/15 08:24:19;;;;;;;16.83;7.97;;;;;;;21.06;44.29;101843.94;5005975;28;20083;-60
2022/05/15 08:26:45;;;;;;;20.52;9.05;;;;;;;21.14;44.73;101850.88;5010913;28;20034;-60
2022/05/15 08:29:13;;;;;;;16.75;8.45;;;;;;;21.22;43.83;101849.38;5010858;28;20033;-60
2022/05/15 08:31:39;;;;;;;16.33;9.27;;;;;;;21.21;42.85;101844.88;5007227;28;20048;-60
2022/05/15 08:34:05;;;;;;;16.35;7.70;;;;;;;21.25;43.41;101843.97;5009309;28;20617;-60
2022/05/15 08:36:31;;;;;;;17.80;9.00;;;;;;;21.24;42.10;101842.28;5009418;28;20092;-60
2022/05/15 08:38:56;;;;;;;14.40;6.95;;;;;;;21.26;42.85;101834.38;5008552;28;20050;-59
2022/05/15 08:41:31;;;;;;;14.90;7.88;;;;;;;21.33;42.74;101837.69;5009363;28;20028;-60
2022/05/15 08:44:26;;;;;;;14.07;7.93;;;;;;;21.33;42.44;101828.38;5010907;28;20040;-61
2022/05/15 08:46:51;;;;;;;14.65;7.32;;;;;;;21.38;42.23;101821.81;5010023;28;20473;-60
2022/05/15 08:49:37;;;;;;;19.87;7.53;;;;;;;21.42;42.55;101822.88;5010037;28;20028;-60
2022/05/15 08:52:11;;;;;;;16.48;7.32;;;;;;;21.53;41.87;101824.44;5005620;28;20417;-60
2022/05/15 08:54:56;;;;;;;13.88;6.85;;;;;;;21.60;41.09;101813.59;5010396;28;20037;-60
2022/05/15 08:57:33;;;;;;;18.40;7.70;;;;;;;21.60;41.20;101816.44;5011673;28;20105;-60
2022/05/15 09:00:01;;;;;;;16.63;6.60;;;;;;;21.70;41.33;101818.28;5021771;28;20037;-61
2022/05/15 09:02:26;;;;;;;16.17;6.70;;;;;;;21.73;40.61;101812.88;5008248;28;20470;-60
2022/05/15 09:04:52;;;;;;;19.95;6.47;;;;;;;21.82;40.25;101818.66;5009605;28;20037;-60
2022/05/15 09:07:40;;;;;;;18.27;7.32;;;;;;;21.86;40.06;101821.72;5011171;28;20164;-60
2022/05/15 09:10:30;;;;;;;14.35;6.63;;;;;;;21.96;40.41;101813.06;5003515;28;20516;-61
2022/05/15 09:13:21;;;;;;;19.30;7.15;;;;;;;21.99;40.25;101809.63;4999607;28;20045;-62
2022/05/15 09:15:57;;;;;;;13.13;6.10;;;;;;;22.00;39.18;101816.94;5009306;28;20030;-60
2022/05/15 09:18:23;;;;;;;18.88;7.05;;;;;;;22.00;38.76;101816.94;5008555;28;20024;-61
2022/05/15 09:21:00;;;;;;;15.48;6.30;;;;;;;22.06;39.34;101822.22;5002670;28;20509;-61
2022/05/15 09:23:39;;;;;;;15.93;6.38;;;;;;;22.21;39.33;101820.34;5008801;28;20021;-61
2022/05/15 09:26:29;;;;;;;17.67;5.75;;;;;;;22.25;39.42;101818.56;5010662;28;20462;-61
2022/05/15 09:29:15;;;;;;;15.05;5.95;;;;;;;22.35;38.63;101814.72;5010621;28;20030;-60
2022/05/15 09:31:42;;;;;;;13.80;5.25;;;;;;;22.36;36.46;101816.38;5005992;28;20034;-60
2022/05/15 09:34:23;;;;;;;13.00;5.32;;;;;;;22.34;37.33;101805.41;5006822;28;20109;-60
2022/05/15 09:36:50;;;;;;;15.05;5.07;;;;;;;22.38;36.29;101808.44;5006944;28;20030;-60
2022/05/15 09:39:15;;;;;;;10.68;5.18;;;;;;;22.45;36.36;101803.22;5006535;28;20516;-60
2022/05/15 09:44:34;;;;;;;15.43;4.35;;;;;;;22.53;35.43;101800.53;5009273;28;20513;-60
2022/05/15 09:47:02;;;;;;;12.65;5.20;;;;;;;22.49;34.63;101802.28;5008015;28;20083;-60
2022/05/15 09:49:33;;;;;;;14.07;4.53;;;;;;;22.54;34.48;101795.69;5008046;28;20080;-59
2022/05/15 09:52:02;;;;;;;10.25;4.40;;;;;;;22.57;34.61;101797.06;5008291;28;20425;-60
2022/05/15 09:54:43;;;;;;;10.35;4.60;;;;;;;22.52;34.59;101793.19;5004695;28;21216;-59
2022/05/15 09:57:17;;;;;;;12.32;4.60;;;;;;;22.64;34.60;101781.38;5007918;28;20072;-60
2022/05/15 09:59:51;;;;;;;15.18;4.78;;;;;;;22.66;34.12;101779.03;5002176;28;20025;-60
2022/05/15 10:02:20;;;;;;;8.63;4.15;;;;;;;22.70;33.73;101780.09;5004842;28;20026;-60
2022/05/15 10:04:49;;;;;;;11.32;4.80;;;;;;;22.71;33.87;101780.94;5004748;28;20442;-60
2022/05/15 10:07:30;;;;;;;13.00;4.43;;;;;;;22.87;34.01;101782.34;5006029;28;20081;-60
2022/05/15 10:10:12;;;;;;;8.60;4.47;;;;;;;22.92;32.80;101781.41;5009389;28;20030;-60
2022/05/15 10:12:39;;;;;;;7.80;3.38;;;;;;;23.04;32.74;101793.06;5012034;28;20447;-60
2022/05/15 10:15:06;;;;;;;9.48;4.05;;;;;;;23.10;31.96;101788.94;5013753;28;20040;-60
2022/05/15 10:17:34;;;;;;;8.80;3.70;;;;;;;23.15;31.60;101773.88;5008849;28;20061;-60
2022/05/15 10:20:31;;;;;;;9.88;3.55;;;;;;;23.27;33.59;101771.34;5008160;28;20873;-61
2022/05/15 10:23:15;;;;;;;10.18;3.55;;;;;;;23.43;33.65;101769.81;5003398;28;20025;-60
2022/05/15 10:25:50;;;;;;;10.25;4.50;;;;;;;23.47;32.12;101770.03;5003293;28;20110;-60
2022/05/15 10:28:28;;;;;;;13.60;4.32;;;;;;;23.49;31.85;101762.03;5007214;28;20354;-59
2022/05/15 10:31:22;;;;;;;7.75;3.50;;;;;;;23.49;32.89;101762.03;5007298;28;20582;-60
2022/05/15 10:34:03;;;;;;;12.30;4.53;;;;;;;23.48;32.49;101757.53;5007331;28;20045;-60
2022/05/15 10:37:01;;;;;;;13.05;4.22;;;;;;;23.54;32.71;101759.09;5007783;28;20046;-61
2022/05/15 10:40:03;;;;;;;11.70;3.78;;;;;;;23.56;33.10;101751.09;5004230;28;20955;-61
2022/05/15 10:42:42;;;;;;;;;;;;;;;23.57;33.21;101751.94;5005711;28;20054;-60
2022/05/15 10:45:25;;;;;;;9.52;3.75;;;;;;;23.63;32.28;101748.69;4998935;28;20324;-60
2022/05/15 10:48:09;;;;;;;11.32;4.10;;;;;;;23.53;32.48;101748.91;5006829;28;20038;-59
2022/05/15 10:50:57;;;;;;;15.82;4.22;;;;;;;23.52;31.71;101741.56;5004494;28;20529;-59
2022/05/15 10:59:30;;;;;;;10.68;4.38;;;;;;;23.54;30.61;101742.09;5004466;28;20547;-60
2022/05/15 11:02:20;;;;;;;11.25;3.72;;;;;;;23.61;33.38;101742.47;5010595;28;20030;-61
2022/05/15 11:05:14;;;;;;;13.40;4.03;;;;;;;23.57;32.42;101730.09;5009559;28;20034;-61
2022/05/15 11:07:53;;;;;;;11.25;4.00;;;;;;;23.66;31.49;101736.72;5014657;28;20026;-61
2022/05/15 11:10:27;;;;;;;10.23;3.85;;;;;;;23.67;31.04;101741.25;5011959;28;20029;-60
2022/05/15 11:13:11;;;;;;;10.43;3.88;;;;;;;23.74;31.71;101735.13;5006967;28;20391;-61
2022/05/15 11:16:22;;;;;;;10.10;3.70;;;;;;;23.73;32.10;101737.09;5007468;28;20249;-61
2022/05/15 11:18:56;;;;;;;9.82;4.05;;;;;;;23.67;31.28;101734.75;5008799;28;20038;-61
2022/05/15 11:21:34;;;;;;;10.05;3.53;;;;;;;23.71;31.55;101728.09;5010802;28;20038;-61
2022/05/15 11:24:07;;;;;;;12.57;3.95;;;;;;;23.76;31.11;101729.97;5009678;28;20033;-61
2022/05/15 11:26:41;;;;;;;12.55;3.72;;;;;;;23.76;31.53;101710.13;5011843;28;20030;-61
2022/05/15 11:29:12;;;;;;;10.85;3.90;;;;;;;23.76;30.36;101705.28;5011952;28;20087;-61
2022/05/15 11:31:44;;;;;;;10.05;3.50;;;;;;;23.85;30.96;101708.19;5008538;28;20026;-61
2022/05/15 11:34:10;;;;;;;13.73;4.47;;;;;;;23.87;30.69;101696.53;5005511;28;20042;-61
2022/05/15 11:36:42;;;;;;;11.55;3.58;;;;;;;23.91;30.51;101691.88;5009853;28;20120;-61
2022/05/15 11:39:24;;;;;;;7.63;3.42;;;;;;;23.96;30.65;101686.91;5011373;28;20355;-61
2022/05/15 11:42:08;;;;;;;6.97;3.00;;;;;;;23.96;31.65;101688.91;5011332;28;20037;-61
2022/05/15 11:44:47;;;;;;;11.35;2.95;;;;;;;24.08;31.51;101683.47;5012158;28;20156;-61
2022/05/15 11:47:34;;;;;;;10.90;3.42;;;;;;;24.11;31.15;101682.00;5006498;28;20029;-61
2022/05/15 11:50:27;;;;;;;9.93;3.17;;;;;;;24.14;30.28;101681.38;5003682;28;20061;-60
2022/05/15 11:52:55;;;;;;;9.60;3.33;;;;;;;24.21;29.36;101674.06;5007607;28;20046;-61
2022/05/15 11:55:46;;;;;;;9.38;2.47;;;;;;;24.20;30.53;101663.84;5006780;28;20062;-61
2022/05/15 11:58:17;;;;;;;10.75;3.13;;;;;;;24.28;29.89;101665.06;5006675;28;20025;-62